createdAt,value
2019-02-23T00:01:13.441Z,12.77
2019-02-23T00:03:44.389Z,17.03
2019-02-23T00:06:15.450Z,13.13
2019-02-23T00:08:46.354Z,12.80
2019-02-23T00:11:17.405Z,19.00
2019-02-23T00:13:48.379Z,68.20
2019-02-23T00:16:19.375Z,15.13
2019-02-23T00:18:50.354Z,11.93
2019-02-23T00:21:21.317Z,14.53
2019-02-23T00:23:52.200Z,13.27
2019-02-23T00:26:23.157Z,14.67
2019-02-23T00:28:54.055Z,13.37
2019-02-23T00:31:24.947Z,16.97
2019-02-23T00:33:55.858Z,17.53
2019-02-23T00:36:26.879Z,16.27
2019-02-23T00:38:57.818Z,13.20
2019-02-23T00:41:28.696Z,13.67
2019-02-23T00:43:59.590Z,13.20
2019-02-23T00:46:30.628Z,12.13
2019-02-23T00:49:01.709Z,12.57
2019-02-23T00:51:32.676Z,13.10
2019-02-23T00:54:03.730Z,12.00
2019-02-23T00:56:34.727Z,13.23
2019-02-23T00:59:05.591Z,13.30
2019-02-23T01:01:36.521Z,13.40
2019-02-23T01:04:07.688Z,11.40
2019-02-23T01:06:38.801Z,12.50
2019-02-23T01:09:09.807Z,14.13
2019-02-23T01:11:40.721Z,13.33
2019-02-23T01:14:11.636Z,13.00
2019-02-23T01:16:42.542Z,11.23
2019-02-23T01:19:13.634Z,11.40
2019-02-23T01:21:44.601Z,12.03
2019-02-23T01:24:15.655Z,11.97
2019-02-23T01:26:46.667Z,11.83
2019-02-23T01:29:17.629Z,11.13
2019-02-23T01:31:48.643Z,13.43
2019-02-23T01:34:19.524Z,11.80
2019-02-23T01:36:50.581Z,12.57
2019-02-23T01:39:21.652Z,10.10
2019-02-23T01:41:52.656Z,11.10
2019-02-23T01:44:23.625Z,14.50
2019-02-23T01:46:54.612Z,10.70
2019-02-23T01:49:25.593Z,10.83
2019-02-23T01:51:56.538Z,10.43
2019-02-23T01:54:27.888Z,13.00
2019-02-23T01:56:58.867Z,11.17
2019-02-23T01:59:29.983Z,12.67
2019-02-23T02:02:00.936Z,9.00
2019-02-23T02:04:31.924Z,10.30
2019-02-23T02:07:02.950Z,11.70
2019-02-23T02:09:34.033Z,13.07
2019-02-23T02:12:06.713Z,10.50
2019-02-23T02:14:37.939Z,14.63
2019-02-23T02:17:08.988Z,11.20
2019-02-23T02:19:39.974Z,11.93
2019-02-23T02:22:10.993Z,12.13
2019-02-23T02:24:41.936Z,11.63
2019-02-23T02:27:12.995Z,13.00
2019-02-23T02:29:43.955Z,10.47
2019-02-23T02:32:14.905Z,10.63
2019-02-23T02:34:45.955Z,11.33
2019-02-23T02:37:16.850Z,11.80
2019-02-23T02:39:47.830Z,10.83
2019-02-23T02:42:18.885Z,11.20
2019-02-23T02:44:49.799Z,12.23
2019-02-23T02:47:20.812Z,11.87
2019-02-23T02:49:51.814Z,12.47
2019-02-23T02:52:22.848Z,14.10
2019-02-23T02:54:53.817Z,11.27
2019-02-23T02:57:24.885Z,15.37
2019-02-23T02:59:55.809Z,11.47
2019-02-23T03:02:26.849Z,14.20
2019-02-23T03:04:57.795Z,11.57
2019-02-23T03:07:28.764Z,12.10
2019-02-23T03:09:59.733Z,11.83
2019-02-23T03:12:31.442Z,10.37
2019-02-23T03:15:02.392Z,13.30
2019-02-23T03:17:33.395Z,10.43
2019-02-23T03:20:05.896Z,11.27
2019-02-23T03:22:36.906Z,11.00
2019-02-23T03:25:08.322Z,10.53
2019-02-23T03:27:39.316Z,13.93
2019-02-23T03:30:11.605Z,11.80
2019-02-23T03:32:42.742Z,11.87
2019-02-23T03:35:13.772Z,11.63
2019-02-23T03:37:44.656Z,11.90
2019-02-23T03:40:15.700Z,11.80
2019-02-23T03:42:46.706Z,11.67
2019-02-23T03:45:17.803Z,15.13
2019-02-23T03:47:48.869Z,13.60
2019-02-23T03:50:19.863Z,13.07
2019-02-23T03:52:50.835Z,12.33
2019-02-23T03:55:21.758Z,12.00
2019-02-23T03:57:52.650Z,10.00
2019-02-23T04:00:23.664Z,13.33
2019-02-23T04:02:54.604Z,12.23
2019-02-23T04:05:25.519Z,12.23
2019-02-23T04:07:56.463Z,11.57
2019-02-23T04:10:27.455Z,13.20
2019-02-23T04:12:58.450Z,13.90
2019-02-23T04:15:29.329Z,12.80
2019-02-23T04:18:00.270Z,11.33
2019-02-23T04:20:31.289Z,13.33
2019-02-23T04:23:02.301Z,10.67
2019-02-23T04:25:33.335Z,12.90
2019-02-23T04:28:04.325Z,11.40
2019-02-23T04:30:35.298Z,13.63
2019-02-23T04:33:06.236Z,11.23
2019-02-23T04:35:37.199Z,12.77
2019-02-23T04:38:08.084Z,14.23
2019-02-23T04:40:38.998Z,11.40
2019-02-23T04:43:09.957Z,13.20
2019-02-23T04:45:41.032Z,11.97
2019-02-23T04:48:12.091Z,17.73
2019-02-23T04:50:42.988Z,17.93
2019-02-23T04:53:13.986Z,12.97
2019-02-23T04:55:44.943Z,12.80
2019-02-23T04:58:15.875Z,15.63
2019-02-23T05:00:46.793Z,16.33
2019-02-23T05:03:17.900Z,17.23
2019-02-23T05:05:48.798Z,15.77
2019-02-23T05:08:19.798Z,17.23
2019-02-23T05:10:52.495Z,12.40
2019-02-23T05:13:23.379Z,15.20
2019-02-23T05:15:54.338Z,16.33
2019-02-23T05:18:25.240Z,23.63
2019-02-23T05:20:56.337Z,15.87
2019-02-23T05:23:27.280Z,20.17
2019-02-23T05:25:58.197Z,16.77
2019-02-23T05:28:29.073Z,11.37
2019-02-23T05:31:00.253Z,14.53
2019-02-23T05:33:31.219Z,11.93
2019-02-23T05:36:02.243Z,15.00
2019-02-23T05:38:33.133Z,15.70
2019-02-23T05:41:04.119Z,14.10
2019-02-23T05:43:34.999Z,14.87
2019-02-23T05:46:06.053Z,18.90
2019-02-23T05:48:36.959Z,16.30
2019-02-23T05:51:07.978Z,14.80
2019-02-23T05:53:38.953Z,15.93
2019-02-23T05:56:13.909Z,16.33
2019-02-23T05:58:42.711Z,18.17
2019-02-23T06:01:13.694Z,13.47
2019-02-23T06:03:44.665Z,14.20
2019-02-23T06:06:15.589Z,13.37
2019-02-23T06:08:46.547Z,14.17
2019-02-23T06:11:17.529Z,18.57
2019-02-23T06:13:48.476Z,30.10
2019-02-23T06:16:19.460Z,15.30
2019-02-23T06:18:50.570Z,14.90
2019-02-23T06:21:21.680Z,16.97
2019-02-23T06:23:52.583Z,15.73
2019-02-23T06:26:23.547Z,16.07
2019-02-23T06:28:54.532Z,17.07
2019-02-23T06:31:25.569Z,15.33
2019-02-23T06:33:56.629Z,14.53
2019-02-23T06:36:27.610Z,17.93
2019-02-23T06:38:58.588Z,16.57
2019-02-23T06:41:29.676Z,16.13
2019-02-23T06:44:00.641Z,16.53
2019-02-23T06:46:31.626Z,16.97
2019-02-23T06:49:02.606Z,14.90
2019-02-23T06:51:33.602Z,14.67
2019-02-23T06:54:04.657Z,13.97
2019-02-23T06:56:35.555Z,15.37
2019-02-23T06:59:06.530Z,13.83
2019-02-23T07:01:37.498Z,17.93
2019-02-23T07:04:08.382Z,14.93
2019-02-23T07:06:40.457Z,14.67
2019-02-23T07:09:11.638Z,15.47
2019-02-23T07:11:42.704Z,15.20
2019-02-23T07:14:13.675Z,14.30
2019-02-23T07:16:44.578Z,16.77
2019-02-23T07:19:15.579Z,13.83
2019-02-23T07:21:46.618Z,13.70
2019-02-23T07:24:17.672Z,13.37
2019-02-23T07:26:48.822Z,12.83
2019-02-23T07:29:19.963Z,12.77
2019-02-23T07:31:50.983Z,11.20
2019-02-23T07:34:22.000Z,13.67
2019-02-23T07:36:53.245Z,13.60
2019-02-23T07:39:24.118Z,12.47
2019-02-23T07:41:55.074Z,13.90
2019-02-23T07:44:26.090Z,14.13
2019-02-23T07:46:57.334Z,12.83
2019-02-23T07:49:28.289Z,14.77
2019-02-23T07:51:59.270Z,13.63
2019-02-23T07:54:30.198Z,13.30
2019-02-23T07:57:01.156Z,16.20
2019-02-23T07:59:32.272Z,11.50
2019-02-23T08:02:03.378Z,14.43
2019-02-23T08:04:34.352Z,13.17
2019-02-23T08:07:06.389Z,14.83
2019-02-23T08:09:37.284Z,15.20
2019-02-23T08:12:08.367Z,14.13
2019-02-23T08:14:39.408Z,14.03
2019-02-23T08:17:10.430Z,12.10
2019-02-23T08:19:41.382Z,13.03
2019-02-23T08:22:12.417Z,13.17
2019-02-23T08:24:43.404Z,12.83
2019-02-23T08:27:14.375Z,13.17
2019-02-23T08:29:45.350Z,11.50
2019-02-23T08:32:16.373Z,13.20
2019-02-23T08:34:47.363Z,12.43
2019-02-23T08:37:18.355Z,13.57
2019-02-23T08:39:49.561Z,11.97
2019-02-23T08:42:20.468Z,12.87
2019-02-23T08:44:51.452Z,15.07
2019-02-23T08:47:22.466Z,15.70
2019-02-23T08:49:53.571Z,12.57
2019-02-23T08:52:24.580Z,11.67
2019-02-23T08:54:55.564Z,13.07
2019-02-23T08:57:26.484Z,13.20
2019-02-23T08:59:57.406Z,11.90
2019-02-23T09:02:28.338Z,12.13
2019-02-23T09:04:59.289Z,15.20
2019-02-23T09:07:30.169Z,12.43
2019-02-23T09:10:01.100Z,12.67
2019-02-23T09:12:32.131Z,12.53
2019-02-23T09:15:03.045Z,12.93
2019-02-23T09:17:34.019Z,12.10
2019-02-23T09:20:06.552Z,12.43
2019-02-23T09:22:37.584Z,12.20
2019-02-23T09:25:09.995Z,15.90
2019-02-23T09:27:41.047Z,13.77
2019-02-23T09:30:15.621Z,12.83
2019-02-23T09:32:46.509Z,10.70
2019-02-23T09:35:17.608Z,10.97
2019-02-23T09:37:48.939Z,12.33
2019-02-23T09:40:20.657Z,13.87
2019-02-23T09:42:51.720Z,10.83
2019-02-23T09:45:22.833Z,12.77
2019-02-23T09:48:06.771Z,10.97
2019-02-23T09:50:37.798Z,13.93
2019-02-23T09:53:11.433Z,10.30
2019-02-23T09:55:41.692Z,10.20
2019-02-23T09:58:12.781Z,13.03
2019-02-23T10:00:43.769Z,9.57
2019-02-23T10:03:14.724Z,9.30
2019-02-23T10:05:45.596Z,9.70
2019-02-23T10:08:17.007Z,12.50
2019-02-23T10:10:48.010Z,13.47
2019-02-23T10:13:18.977Z,9.43
2019-02-23T10:15:49.983Z,10.13
2019-02-23T10:18:20.956Z,8.97
2019-02-23T10:20:53.487Z,10.33
2019-02-23T10:23:24.531Z,9.10
2019-02-23T10:25:55.409Z,8.80
2019-02-23T10:28:26.370Z,10.23
2019-02-23T10:30:57.407Z,9.90
2019-02-23T10:33:28.439Z,8.67
2019-02-23T10:35:59.429Z,8.47
2019-02-23T10:38:30.383Z,9.00
2019-02-23T10:41:01.288Z,9.00
2019-02-23T10:43:32.241Z,8.50
2019-02-23T10:46:03.240Z,8.87
2019-02-23T10:48:34.531Z,13.57
2019-02-23T10:51:05.632Z,8.03
2019-02-23T10:53:36.526Z,8.03
2019-02-23T10:56:07.582Z,9.53
2019-02-23T10:58:38.490Z,8.00
2019-02-23T11:01:09.525Z,7.73
2019-02-23T11:03:40.565Z,8.10
2019-02-23T11:06:11.778Z,7.10
2019-02-23T11:08:42.846Z,8.40
2019-02-23T11:11:13.877Z,7.67
2019-02-23T11:13:44.922Z,7.50
2019-02-23T11:16:15.972Z,5.97
2019-02-23T11:18:47.027Z,7.77
2019-02-23T11:21:18.236Z,6.37
2019-02-23T11:23:49.398Z,6.20
2019-02-23T11:26:20.349Z,6.60
2019-02-23T11:28:51.443Z,6.03
2019-02-23T11:31:22.414Z,5.20
2019-02-23T11:33:53.306Z,5.57
2019-02-23T11:36:24.210Z,5.10
2019-02-23T11:38:55.081Z,5.10
2019-02-23T11:41:25.989Z,5.20
2019-02-23T11:43:56.866Z,4.97
2019-02-23T11:46:27.896Z,5.63
2019-02-23T11:48:58.789Z,4.43
2019-02-23T11:51:29.762Z,4.53
2019-02-23T11:54:00.770Z,5.03
2019-02-23T11:56:31.682Z,7.43
2019-02-23T11:59:02.614Z,6.10
2019-02-23T12:01:33.484Z,7.07
2019-02-23T12:04:04.468Z,5.83
2019-02-23T12:06:35.438Z,5.67
2019-02-23T12:09:09.595Z,5.00
2019-02-23T12:11:40.712Z,5.50
2019-02-23T12:14:11.613Z,6.10
2019-02-23T12:16:42.614Z,4.77
2019-02-23T12:19:13.562Z,5.17
2019-02-23T12:21:44.638Z,5.10
2019-02-23T12:24:15.490Z,4.80
2019-02-23T12:26:46.476Z,5.03
2019-02-23T12:29:17.393Z,4.63
2019-02-23T12:31:48.318Z,5.53
2019-02-23T12:34:19.239Z,5.67
2019-02-23T12:36:50.259Z,5.13
2019-02-23T12:39:21.162Z,5.50
2019-02-23T12:41:52.361Z,4.50
2019-02-23T12:44:23.403Z,5.50
2019-02-23T12:46:54.277Z,5.37
2019-02-23T12:49:25.206Z,7.30
2019-02-23T12:51:56.160Z,4.70
2019-02-23T12:54:27.038Z,4.90
2019-02-23T12:56:57.986Z,7.93
2019-02-23T12:59:28.937Z,5.47
2019-02-23T13:01:59.975Z,7.23
2019-02-23T13:04:31.079Z,5.10
2019-02-23T13:07:02.042Z,5.50
2019-02-23T13:09:33.589Z,5.60
2019-02-23T13:12:19.236Z,4.90
2019-02-23T13:14:59.084Z,5.23
2019-02-23T13:18:01.251Z,5.70
2019-02-23T13:20:53.128Z,4.37
2019-02-23T13:23:33.027Z,4.73
2019-02-23T13:26:41.316Z,4.67
2019-02-23T13:29:20.909Z,4.77
2019-02-23T13:32:27.648Z,4.70
2019-02-23T13:35:18.150Z,5.63
2019-02-23T13:37:57.889Z,4.73
2019-02-23T13:40:40.509Z,4.83
2019-02-23T13:43:33.801Z,5.83
2019-02-23T13:46:39.262Z,4.87
2019-02-23T13:49:15.923Z,4.10
2019-02-23T13:51:58.628Z,3.87
2019-02-23T13:54:44.313Z,4.07
2019-02-23T13:57:26.830Z,4.40
2019-02-23T14:00:18.626Z,3.40
2019-02-23T14:03:10.700Z,3.73
2019-02-23T14:05:44.619Z,4.00
2019-02-23T14:08:30.478Z,4.70
2019-02-23T14:11:20.749Z,8.20
2019-02-23T14:14:00.308Z,5.03
2019-02-23T14:16:36.788Z,4.17
2019-02-23T14:19:22.239Z,4.90
2019-02-23T14:21:56.167Z,3.77
2019-02-23T14:24:49.526Z,6.17
2019-02-23T14:27:41.041Z,4.77
2019-02-23T14:30:23.623Z,4.73
2019-02-23T14:33:18.032Z,4.13
2019-02-23T14:35:57.528Z,4.40
2019-02-23T14:38:37.581Z,3.50
2019-02-23T14:41:14.096Z,3.47
2019-02-23T14:43:56.677Z,5.60
2019-02-23T14:46:45.370Z,3.47
2019-02-23T14:49:35.411Z,3.73
2019-02-23T14:52:30.110Z,3.07
2019-02-23T14:55:27.671Z,4.07
2019-02-23T14:58:01.672Z,3.47
2019-02-23T15:00:41.555Z,6.30
2019-02-23T15:03:44.072Z,2.53
2019-02-23T15:06:46.381Z,2.37
2019-02-23T15:09:41.312Z,3.07
2019-02-23T15:12:18.057Z,2.57
2019-02-23T15:15:06.655Z,2.73
2019-02-23T15:18:02.675Z,3.33
2019-02-23T15:20:57.279Z,3.13
2019-02-23T15:23:36.749Z,3.63
2019-02-23T15:26:13.342Z,3.23
2019-02-23T15:28:53.083Z,2.37
2019-02-23T15:31:30.135Z,4.93
2019-02-23T15:34:24.628Z,4.27
2019-02-23T15:37:00.908Z,3.93
2019-02-23T15:39:43.026Z,5.20
2019-02-23T15:42:19.903Z,3.13
2019-02-23T15:45:16.430Z,4.77
2019-02-23T15:47:53.150Z,5.30
2019-02-23T15:50:24.040Z,5.10
2019-02-23T15:52:55.120Z,6.27
2019-02-23T15:55:29.473Z,4.10
2019-02-23T15:57:58.704Z,2.90
2019-02-23T16:00:29.755Z,5.40
2019-02-23T16:03:00.608Z,5.93
2019-02-23T16:05:31.563Z,4.67
2019-02-23T16:08:02.464Z,6.37
2019-02-23T16:10:33.448Z,4.00
2019-02-23T16:13:04.389Z,3.43
2019-02-23T16:15:35.397Z,6.00
2019-02-23T16:18:06.453Z,4.80
2019-02-23T16:20:37.410Z,7.17
2019-02-23T16:23:08.376Z,4.17
2019-02-23T16:25:39.338Z,4.33
2019-02-23T16:28:10.338Z,3.97
2019-02-23T16:30:41.292Z,4.17
2019-02-23T16:33:12.235Z,6.63
2019-02-23T16:35:43.204Z,6.53
2019-02-23T16:38:14.211Z,6.50
2019-02-23T16:40:45.138Z,15.83
2019-02-23T16:43:20.930Z,6.80
2019-02-23T16:45:51.846Z,5.83
2019-02-23T16:48:22.934Z,9.10
2019-02-23T16:50:53.917Z,6.97
2019-02-23T16:53:24.866Z,18.70
2019-02-23T16:55:56.810Z,5.67
2019-02-23T16:58:27.757Z,3.73
2019-02-23T17:00:58.701Z,4.70
2019-02-23T17:03:29.658Z,6.27
2019-02-23T17:06:00.574Z,6.33
2019-02-23T17:08:33.430Z,8.03
2019-02-23T17:11:04.318Z,3.97
2019-02-23T17:13:35.300Z,9.87
2019-02-23T17:16:06.145Z,4.53
2019-02-23T17:18:37.096Z,5.20
2019-02-23T17:21:08.111Z,10.30
2019-02-23T17:23:39.006Z,4.30
2019-02-23T17:26:10.029Z,8.20
2019-02-23T17:28:41.029Z,6.60
2019-02-23T17:31:12.046Z,5.63
2019-02-23T17:33:42.990Z,8.77
2019-02-23T17:36:13.924Z,7.77
2019-02-23T17:38:45.002Z,8.80
2019-02-23T17:41:15.903Z,9.60
2019-02-23T17:43:46.936Z,8.57
2019-02-23T17:46:17.792Z,7.60
2019-02-23T17:48:49.050Z,6.60
2019-02-23T17:51:20.008Z,14.47
2019-02-23T17:53:50.978Z,13.47
2019-02-23T17:56:21.943Z,9.13
2019-02-23T17:58:52.986Z,7.20
2019-02-23T18:01:25.465Z,6.90
2019-02-23T18:03:56.586Z,7.97
2019-02-23T18:06:27.630Z,7.37
2019-02-23T18:08:58.665Z,4.43
2019-02-23T18:11:29.555Z,7.27
2019-02-23T18:14:00.512Z,6.60
2019-02-23T18:16:31.501Z,8.70
2019-02-23T18:19:02.495Z,7.90
2019-02-23T18:21:33.529Z,9.90
2019-02-23T18:24:04.561Z,10.57
2019-02-23T18:26:35.605Z,13.87
2019-02-23T18:29:07.785Z,15.03
2019-02-23T18:31:38.850Z,18.53
2019-02-23T18:34:09.884Z,9.00
2019-02-23T18:36:40.789Z,14.93
2019-02-23T18:39:11.771Z,12.03
2019-02-23T18:41:42.754Z,15.60
2019-02-23T18:44:13.705Z,12.13
2019-02-23T18:46:44.671Z,15.57
2019-02-23T18:49:15.571Z,12.80
2019-02-23T18:51:46.695Z,10.80
2019-02-23T18:54:17.663Z,7.93
2019-02-23T18:56:48.682Z,10.70
2019-02-23T18:59:19.567Z,11.47
2019-02-23T19:01:50.533Z,11.17
2019-02-23T19:04:21.515Z,11.10
2019-02-23T19:06:52.410Z,13.97
2019-02-23T19:09:23.368Z,12.77
2019-02-23T19:11:54.279Z,12.57
2019-02-23T19:14:25.199Z,12.90
2019-02-23T19:16:56.138Z,18.13
2019-02-23T19:19:27.163Z,11.13
2019-02-23T19:21:58.117Z,10.97
2019-02-23T19:24:29.164Z,9.50
2019-02-23T19:27:00.096Z,9.77
2019-02-23T19:29:31.092Z,25.13
2019-02-23T19:32:02.036Z,10.80
2019-02-23T19:34:33.010Z,14.10
2019-02-23T19:37:03.967Z,11.63
2019-02-23T19:39:34.903Z,9.87
2019-02-23T19:42:05.906Z,9.20
2019-02-23T19:44:36.903Z,12.87
2019-02-23T19:47:09.104Z,15.97
2019-02-23T19:49:40.069Z,11.53
2019-02-23T19:52:10.965Z,12.20
2019-02-23T19:54:41.911Z,12.70
2019-02-23T19:57:13.143Z,11.20
2019-02-23T19:59:44.090Z,10.87
2019-02-23T20:02:15.065Z,10.07
2019-02-23T20:04:46.104Z,11.20
2019-02-23T20:07:17.097Z,8.33
2019-02-23T20:09:48.071Z,7.53
2019-02-23T20:12:19.020Z,9.33
2019-02-23T20:14:50.130Z,11.27
2019-02-23T20:17:21.120Z,10.77
2019-02-23T20:19:52.032Z,11.23
2019-02-23T20:22:23.015Z,9.83
2019-02-23T20:24:53.918Z,11.67
2019-02-23T20:27:24.931Z,10.30
2019-02-23T20:29:55.886Z,12.57
2019-02-23T20:32:26.742Z,12.70
2019-02-23T20:34:57.688Z,13.53
2019-02-23T20:37:28.605Z,11.80
2019-02-23T20:39:59.514Z,13.47
2019-02-23T20:42:30.385Z,16.03
2019-02-23T20:45:01.406Z,13.80
2019-02-23T20:47:32.520Z,17.67
2019-02-23T20:50:04.508Z,15.43
2019-02-23T20:52:35.485Z,16.57
2019-02-23T20:55:08.357Z,14.43
2019-02-23T20:57:39.377Z,12.57
2019-02-23T21:00:11.551Z,11.50
2019-02-23T21:02:42.455Z,12.67
2019-02-23T21:05:14.364Z,11.60
2019-02-23T21:07:47.714Z,14.97
2019-02-23T21:10:18.772Z,11.97
2019-02-23T21:12:49.664Z,14.47
2019-02-23T21:15:20.624Z,12.60
2019-02-23T21:17:51.571Z,13.67
2019-02-23T21:20:22.494Z,14.03
2019-02-23T21:22:53.549Z,14.43
2019-02-23T21:25:24.527Z,14.00
2019-02-23T21:27:55.489Z,12.73
2019-02-23T21:30:26.477Z,15.73
2019-02-23T21:32:57.541Z,16.60
2019-02-23T21:35:28.601Z,14.40
2019-02-23T21:37:59.488Z,17.10
2019-02-23T21:40:30.452Z,19.47
2019-02-23T21:43:01.417Z,13.43
2019-02-23T21:45:32.281Z,13.43
2019-02-23T21:48:03.225Z,15.30
2019-02-23T21:50:34.208Z,13.10
2019-02-23T21:53:05.270Z,12.07
2019-02-23T21:55:36.313Z,14.20
2019-02-23T21:58:07.282Z,13.20
2019-02-23T22:00:38.178Z,10.57
2019-02-23T22:03:09.202Z,10.17
2019-02-23T22:05:40.066Z,12.17
2019-02-23T22:08:10.964Z,11.73
2019-02-23T22:10:41.952Z,18.40
2019-02-23T22:13:12.940Z,14.50
2019-02-23T22:15:43.861Z,11.70
2019-02-23T22:18:14.877Z,11.63
2019-02-23T22:20:45.907Z,11.90
2019-02-23T22:23:16.957Z,13.40
2019-02-23T22:25:47.962Z,14.30
2019-02-23T22:28:18.930Z,12.53
2019-02-23T22:30:49.838Z,10.30
2019-02-23T22:33:20.732Z,12.77
2019-02-23T22:35:51.716Z,15.00
2019-02-23T22:38:22.730Z,12.70
2019-02-23T22:40:56.130Z,15.83
2019-02-23T22:43:27.015Z,9.40
2019-02-23T22:45:58.029Z,13.33
2019-02-23T22:48:29.038Z,12.67
2019-02-23T22:51:00.111Z,12.07
2019-02-23T22:53:31.124Z,12.23
2019-02-23T22:56:02.042Z,11.73
2019-02-23T22:58:32.959Z,12.10
2019-02-23T23:01:04.999Z,13.00
2019-02-23T23:03:35.971Z,14.03
2019-02-23T23:06:07.205Z,13.70
2019-02-23T23:08:39.937Z,12.73
2019-02-23T23:11:10.954Z,12.17
2019-02-23T23:13:42.041Z,16.93
2019-02-23T23:16:13.009Z,12.13
2019-02-23T23:18:49.718Z,15.93
2019-02-23T23:21:20.680Z,11.47
2019-02-23T23:23:51.639Z,12.33
2019-02-23T23:26:22.602Z,11.47
2019-02-23T23:28:59.392Z,15.13
2019-02-23T23:31:30.397Z,13.53
2019-02-23T23:34:01.575Z,14.97
2019-02-23T23:36:32.743Z,15.07
2019-02-23T23:39:05.485Z,12.80
2019-02-23T23:41:36.399Z,15.97
2019-02-23T23:44:07.408Z,16.17
2019-02-23T23:46:38.327Z,12.37
2019-02-23T23:49:09.221Z,13.87
2019-02-23T23:51:40.118Z,10.77
2019-02-23T23:54:11.075Z,18.33
2019-02-23T23:56:42.047Z,12.70
2019-02-23T23:59:13.094Z,14.17
